Matsubara, Japan

5:39 AM JST on 六月 28, 2017 (GMT +0900)
Rue de Chantepoulet | | Change Station

高度 400 ft 33.32 °N, 131.48 °E | Updated 12 minutes ago

曇
71.2 °F
体感気温 71.2 °F
1.2
風 変数 風 から 北東
Gusts 2.5 Mph

今日
高い -- | 低 -- °F
--% 降水確率
昨日
高い -- | 低 -- °F
Precip. -- インチ
気圧 29.86 インチ
視程 2.5 マイル
わずか 300 ft
やや曇 600 ft
だいたい曇 1000 ft
露点温度 70 °F
湿度 97%
降水 0.07 インチ
積雪深 利用不可。
5:05 AM 7:27 PM
三日月, 19% visible
SPECI RJOF 271940Z 33003KT 4000 -SHRA BR FEW003 SCT006 BKN010 22/21 Q1011 RMK 1ST003 3ST006 6ST010 A2988
気圧 29.86 インチ
視程 2.5 マイル
わずか 300 ft
やや曇 600 ft
だいたい曇 1000 ft
露点温度 70 °F
湿度 97%
降水 0.07 インチ
積雪深 利用不可。
5:05 AM 7:27 PM
三日月, 19% visible
SPECI RJOF 271940Z 33003KT 4000 -SHRA BR FEW003 SCT006 BKN010 22/21 Q1011 RMK 1ST003 3ST006 6ST010 A2988

Get Severe Weather Alerts

Thanks for signing up!

Be on the lookout for a verification email in your inbox.

You'll start receiving the daily forecast at 6 AM.

×

10-Day Weather Forecast

No radar image for this location.
×

Almanac

天文

Jun. 28, 2017 入り
実時間
常用薄明
航海薄明
天文薄明
可視光の長さ
可照時間
Tomorrow will be .
, % of the Moon is Illuminated

今日の極値

Country Highs Country Lows

Community

Category 6

Welcome to Category 6. This is the collective home for Weather Underground's featured writeups by Dr. Jeff Masters (right), Bob Henson (left), Chris Burt, and other regular contributors.

Nearby

空気品質

  空気品質 大気質指数 汚染物質
Not available.

積雪深

Station Depth 高度

地震活動

Distance Mag. Time & Date
Minimum magnitude displayed is 2.5.

沿岸の水温

地名 気温

Stations

最寄りの気象観測所

観測所位置 温度 体感気温(寒さ) 露点温度 湿度 Precip. 高度 更新日時 タイプする